Landels-Hill Big Creek Reserve Entrance, California Weather observations

Data are for 10 minute period ending at time listed.
 Day   Time   Solar   Ave.   Ave.  Ave.  Vector  Max.   Baro.   Total    
  of    of     Rad.   Air    Rel.  Wind   Wind   Wind  Press.  Precip.   
Year   Day            Temp.  Hum.  Speed  Dir.   Gust                    
2016   (PST)  Kw/m2    F      %     mph   deg.    mph    mb.     in.     
-------------------------------------------------------------------------
  43   21:40   0.00   53.7    85    1.3    23     2.7   1016.3    0.00 
  43   21:50   0.00   53.3    85    1.9    27     3.9   1016.5    0.00 
  43   22:00   0.00   52.9    83    1.5    19     3.7   1016.6    0.00 
  43   22:10   0.00   52.9    80    1.3    18     3.9   1016.8    0.00 
  43   22:20   0.00   53.2    78    2.2    28     4.4   1016.8    0.00 
  43   22:30   0.00   53.0    75    1.7    34     3.7   1016.9    0.00 
  43   22:40   0.00   52.4    76    1.7    17     3.7   1017.0    0.00 
  43   22:50   0.00   52.4    75    1.6    21     4.1   1016.9    0.00 
  43   23:00   0.00   52.4    72    1.5    24     3.2   1017.0    0.00 
  43   23:10   0.00   52.3    73    1.8    20     4.7   1017.1    0.00 
  43   23:20   0.00   52.5    73    2.9    10     5.6   1017.1    0.00 
  43   23:30   0.00   52.7    72    1.9    15     4.5   1017.1    0.00 
  43   23:40   0.00   52.6    70    1.7     4     4.3   1017.2    0.00 
  43   23:50   0.00   52.1    73    2.2    10     5.3   1017.1    0.00 
  44    0:00   0.00   52.8    70    3.0     6     6.1   1017.1    0.00 
  44    0:10   0.00   53.3    67    2.7    18     5.4   1017.1    0.00 
  44    0:20   0.00   53.0    69    1.1    16     4.1   1017.1    0.00 
  44    0:30   0.00   51.7    74    1.0     5     3.0   1017.2    0.00 
  44    0:40   0.00   51.5    79    1.5    10     3.3   1017.2    0.00 
  44    0:50   0.00   51.0    81    1.7    12     4.7   1017.2    0.00 
  44    1:00   0.00   52.1    80    1.8    15     5.2   1017.2    0.00 
  44    1:10   0.00   52.8    76    3.1    29     5.4   1017.2    0.00 
  44    1:20   0.00   53.7    70    3.0    39     5.6   1017.2    0.00 
  44    1:30   0.00   54.0    69    2.2    28     5.1   1017.3    0.00 
  44    1:40   0.00   53.6    70    1.8    33     4.2   1017.3    0.00 
  44    1:50   0.00   52.9    73    1.4    54     3.6   1017.4    0.00 
  44    2:00   0.00   52.0    76    1.3    18     3.1   1017.4    0.00 
  44    2:10   0.00   51.1    80    1.3     5     3.7   1017.5    0.00 
  44    2:20   0.00   50.9    82    2.1    20     3.6   1017.5    0.00 
  44    2:30   0.00   51.2    80    1.7   358     3.3   1017.5    0.00 
  44    2:40   0.00   51.2    82    2.2    14     4.3   1017.5    0.00 
  44    2:50   0.00   51.4    82    2.3    39     5.1   1017.4    0.00 
  44    3:00   0.00   52.6    79    2.1    32     4.4   1017.3    0.00 
  44    3:10   0.00   53.2    74    1.9    58     4.1   1017.3    0.00 
  44    3:20   0.00   53.3    72    1.6    42     4.1   1017.5    0.00 
  44    3:30   0.00   52.9    73    2.6    42     5.5   1017.4    0.00 
  44    3:40   0.00   53.6    69    1.2    78     3.5   1017.3    0.00 
  44    3:50   0.00   53.7    70    1.3    33     3.3   1017.3    0.00 
  44    4:00   0.00   52.2    75    1.1    19     3.4   1017.3    0.00 
  44    4:10   0.00   51.3    79    0.9   349     3.1   1017.4    0.00 
  44    4:20   0.00   50.7    82    0.4   353     1.2   1017.5    0.00 
  44    4:30   0.00   50.3    85    0.9   353     3.2   1017.5    0.00 
  44    4:40   0.00   50.6    87    2.2   350     4.1   1017.4    0.00 
  44    4:50   0.00   51.4    87    2.6     9     5.3   1017.4    0.00 
  44    5:00   0.00   52.0    86    2.8    16     6.1   1017.4    0.00 
  44    5:10   0.00   52.6    83    2.6    43     5.8   1017.4    0.00 
  44    5:20   0.00   53.0    80    2.0    46     5.7   1017.6    0.00 
  44    5:30   0.00   52.9    79    0.9    63     3.1   1017.9    0.00 
  44    5:40   0.00   51.9    80    1.1     4     2.3   1018.0    0.00 
  44    5:50   0.00   50.9    82    2.0    18     4.2   1018.1    0.00 
  44    6:00   0.00   50.4    84    1.9    16     3.9   1018.0    0.00 
  44    6:10   0.00   50.2    84    1.6    34     3.2   1017.9    0.00 
  44    6:20   0.00   50.0    84    0.8     0     3.3   1018.1    0.00 
  44    6:30   0.00   49.2    86    2.0     5     3.5   1018.2    0.00 
  44    6:40   0.00   49.3    88    2.4    12     4.8   1018.1    0.00 
  44    6:50   0.00   49.8    88    1.7    36     4.9   1018.0    0.00 
  44    7:00   0.00   50.6    88    1.7    30     5.6   1018.1    0.00 
  44    7:10   0.01   49.9    87    1.8    23     3.9   1018.2    0.00 
  44    7:20   0.01   49.6    88    2.4     4     5.3   1018.4    0.00 
  44    7:30   0.01   49.2    88    1.4    14     4.8   1018.4    0.00 
  44    7:40   0.01   49.5    89    1.8    60     5.6   1018.4    0.00 
  44    7:50   0.01   49.8    87    2.5    30     4.7   1018.5    0.00 
  44    8:00   0.01   49.5    87    2.0    15     4.8   1018.6    0.00 
  44    8:10   0.02   49.4    87    1.9     4     4.6   1018.8    0.00 
  44    8:20   0.03   49.2    88    2.6    29     5.0   1018.7    0.00 
  44    8:30   0.03   50.3    87    2.7    29     6.9   1018.7    0.00 
  44    8:40   0.03   51.4    84    2.1    15     5.0   1018.7    0.00 
  44    8:50   0.03   51.4    83    2.8    15     6.0   1018.8    0.00 
  44    9:00   0.03   52.2    81    2.7    12     6.4   1018.7    0.00 
  44    9:10   0.03   52.9    78    1.7    23     5.3   1018.7    0.00 
  44    9:20   0.04   54.3    83    0.6   135     3.4   1019.0    0.00 
  44    9:30   0.04   55.5    87    0.5   155     2.9   1018.9    0.00 
  44    9:40   0.03   55.2    88    0.8    84     2.8   1018.6    0.00 
  44    9:50   0.04   55.0    87    0.6    73     3.4   1018.5    0.00 
  44   10:00   0.06   55.6    88    0.9   146     2.9   1018.5    0.00 
  44   10:10   0.10   56.0    89    0.3   148     2.1   1018.7    0.00 
  44   10:20   0.10   56.2    89    0.6    99     3.3   1018.5    0.00 
  44   10:30   0.10   56.3    90    0.6   278     2.9   1018.3    0.00 
  44   10:40   0.36   56.6    90    1.6   190     3.4   1018.4    0.00 
  44   10:50   0.43   57.8    89    0.7   158     2.6   1018.5    0.00 
  44   11:00   0.46   59.4    84    1.3   173     3.6   1018.6    0.00 
  44   11:10   0.49   59.7    81    1.4   192     2.8   1018.9    0.00 
  44   11:20   0.54   60.0    81    1.1   205     3.8   1018.8    0.00 
  44   11:30   0.55   61.2    77    1.1   173     2.6   1018.9    0.00 
  44   11:40   0.54   62.4    73    1.7   152     5.3   1019.2    0.00 
  44   11:50   0.56   60.5    74    3.6   136     7.2   1019.3    0.00 
  44   12:00   0.56   59.5    80    2.4   122     6.2   1019.2    0.00 
  44   12:10   0.58   59.6    80    3.3   169     9.4   1018.8    0.00 
  44   12:20   0.59   60.7    78    2.2   224     6.5   1018.4    0.00 
  44   12:30   0.60   61.0    76    2.1   208     4.5   1018.3    0.00 
  44   12:40   0.60   61.1    76    2.0   202     4.8   1018.2    0.00 
  44   12:50   0.61   61.3    75    1.6   207     3.8   1018.0    0.00 
  44   13:00   0.61   60.9    76    2.0   196     4.1   1017.8    0.00 
  44   13:10   0.61   61.2    75    1.5   205     4.2   1017.7    0.00 
  44   13:20   0.60   60.9    75    2.0   211     4.5   1017.7    0.00 
  44   13:30   0.59   60.7    76    1.9   216     4.0   1017.5    0.00 
  44   13:40   0.59   60.8    76    2.2   225     5.9   1017.4    0.00 
  44   13:50   0.57   60.3    76    2.2   215     4.7   1017.7    0.00 
  44   14:00   0.56   60.7    77    1.6   229     5.4   1017.7    0.00 
  44   14:10   0.54   60.7    78    1.4   272     3.4   1017.6    0.00 
  44   14:20   0.53   60.8    77    2.1   232     4.3   1017.3    0.00 
  44   14:30   0.51   59.9    78    2.3   242     5.8   1017.3    0.00 
  44   14:40   0.49   60.6    77    1.7   243     3.7   1017.2    0.00 
  44   14:50   0.47   61.1    74    1.3   222     4.1   1017.2    0.00 
  44   15:00   0.45   61.4    74    2.0   213     5.3   1017.3    0.00 
  44   15:10   0.43   61.5    74    1.2   209     3.2   1017.5    0.00 
  44   15:20   0.41   61.1    75    1.5   208     3.2   1017.6    0.00 
  44   15:30   0.38   61.1    75    0.9   195     3.8   1017.6    0.00 
  44   15:40   0.36   62.1    73    0.9   232     2.9   1017.4    0.00 
  44   15:50   0.33   62.8    72    1.2   235     3.1   1017.4    0.00 
  44   16:00   0.31   63.3    70    1.2   214     3.3   1017.6    0.00 
  44   16:10   0.27   63.0    69    0.7   216     3.4   1017.9    0.00 
  44   16:20   0.25   63.0    69    1.3   211     4.5   1017.8    0.00 
  44   16:30   0.20   62.2    72    1.0   191     2.8   1017.7    0.00 
  44   16:40   0.19   61.6    74    0.6   231     1.9   1017.6    0.00 
  44   16:50   0.16   60.6    75    1.2   180     3.9   1017.8    0.00 
  44   17:00   0.12   60.9    73    0.8   299     2.0   1017.8    0.00 
  44   17:10   0.05   60.1    74    0.3   297     1.6   1017.7    0.00 
  44   17:20   0.04   59.0    78    0.3    66     1.6   1017.5    0.00 
  44   17:30   0.03   57.6    80    0.8    30     2.9   1017.1    0.00 
  44   17:40   0.02   57.1    82    0.8    73     2.6   1017.0    0.00 
  44   17:50   0.01   56.7    82    1.0     1     2.1   1017.1    0.00 
  44   18:00   0.01   55.6    84    2.1    34     3.9   1017.1    0.00 
  44   18:10   0.00   55.2    86    1.9    46     3.9   1017.2    0.00 
  44   18:20   0.00   55.4    85    1.6    58     3.8   1017.4    0.00 
  44   18:30   0.00   55.2    83    1.9    32     4.0   1017.5    0.00 
  44   18:40   0.00   55.1    78    1.4    74     3.6   1017.6    0.00 
  44   18:50   0.00   55.2    79    1.7    42     6.9   1018.2    0.00 
  44   19:00   0.00   56.2    85    1.0    28     2.3   1018.3    0.00 
  44   19:10   0.00   55.2    84    1.5    35     2.7   1018.3    0.00 
  44   19:20   0.00   53.9    83    1.8    23     3.4   1018.3    0.00 
  44   19:30   0.00   52.9    83    2.7    37     6.9   1018.3    0.00 
  44   19:40   0.00   53.4    73    2.0    42     6.1   1018.4    0.00 
  44   19:50   0.00   53.8    69    1.8    36     4.3   1018.6    0.00 
  44   20:00   0.00   52.6    72    2.4    22     5.3   1018.7    0.00 
  44   20:10   0.00   52.3    70    2.5    81     5.6   1018.7    0.00 
  44   20:20   0.00   52.4    65    1.1    17     2.9   1018.9    0.00 
  44   20:30   0.00   51.2    70    2.7    13     4.5   1019.0    0.00 
  44   20:40   0.00   50.7    71    1.6    18     5.9   1018.9    0.00 
  44   20:50   0.00   50.5    71    1.6    36     2.9   1018.8    0.00 
  44   21:00   0.00   51.1    66    1.0     6     2.6   1018.7    0.00 
  44   21:10   0.00   53.1    66    2.3   128     4.9   1019.1    0.00 
  44   21:20   0.00   52.5    68    1.4    25     3.1   1019.3    0.00 
  44   21:30   0.00   51.6    70    1.7    48     4.0   1019.3    0.00 

Return to Big Creek Reserve Entrance graphs page.


Western Regional Climate Center,wrcc@dri.edu